createdAt,value
2022-12-18T00:01:32.418Z,13.57
2022-12-18T00:03:59.336Z,15.30
2022-12-18T00:06:28.163Z,14.02
2022-12-18T00:08:57.402Z,13.95
2022-12-18T00:11:27.288Z,11.55
2022-12-18T00:13:55.351Z,14.13
2022-12-18T00:16:23.889Z,12.40
2022-12-18T00:18:52.950Z,13.32
2022-12-18T00:21:20.760Z,14.50
2022-12-18T00:23:48.743Z,15.32
2022-12-18T00:26:21.146Z,12.43
2022-12-18T00:28:50.602Z,11.40
2022-12-18T00:31:20.347Z,14.50
2022-12-18T00:33:47.569Z,12.20
2022-12-18T00:36:22.330Z,11.90
2022-12-18T00:38:49.909Z,11.70
2022-12-18T00:41:38.883Z,9.60
2022-12-18T00:44:07.117Z,15.35
2022-12-18T00:46:34.108Z,10.10
2022-12-18T00:49:00.907Z,10.13
2022-12-18T00:51:27.850Z,10.50
2022-12-18T00:53:54.998Z,15.95
2022-12-18T00:56:21.736Z,19.38
2022-12-18T00:58:48.376Z,13.57
2022-12-18T01:01:15.279Z,11.25
2022-12-18T01:03:42.343Z,10.77
2022-12-18T01:06:12.660Z,11.93
2022-12-18T01:08:39.851Z,11.77
2022-12-18T01:11:16.578Z,14.02
2022-12-18T01:13:43.745Z,9.23
2022-12-18T01:16:16.758Z,7.47
2022-12-18T01:18:43.573Z,7.57
2022-12-18T01:21:13.389Z,8.70
2022-12-18T01:23:40.667Z,7.65
2022-12-18T01:26:10.111Z,10.38
2022-12-18T01:28:37.579Z,7.03
2022-12-18T01:31:11.630Z,12.27
2022-12-18T01:33:38.671Z,10.00
2022-12-18T01:36:07.002Z,7.13
2022-12-18T01:38:33.647Z,8.65
2022-12-18T01:41:01.443Z,7.97
2022-12-18T01:43:57.959Z,7.47
2022-12-18T01:48:56.504Z,7.18
2022-12-18T01:51:25.162Z,11.57
2022-12-18T01:53:51.841Z,11.23
2022-12-18T01:56:20.729Z,10.25
2022-12-18T01:59:04.934Z,10.13
2022-12-18T02:01:33.697Z,9.23
2022-12-18T02:04:23.064Z,8.57
2022-12-18T02:07:00.619Z,10.35
2022-12-18T02:09:45.562Z,8.15
2022-12-18T02:12:35.126Z,8.52
2022-12-18T02:15:35.097Z,9.18
2022-12-18T02:18:12.383Z,8.95
2022-12-18T02:20:49.560Z,10.45
2022-12-18T02:23:34.753Z,11.48
2022-12-18T02:26:19.827Z,9.85
2022-12-18T02:28:55.378Z,9.77
2022-12-18T02:31:29.231Z,9.05
2022-12-18T02:33:59.993Z,9.55
2022-12-18T02:36:30.076Z,9.95
2022-12-18T02:38:59.905Z,8.35
2022-12-18T02:41:27.282Z,10.38
2022-12-18T02:43:58.803Z,10.57
2022-12-18T02:46:31.170Z,9.10
2022-12-18T02:49:29.842Z,8.77
2022-12-18T02:52:13.043Z,8.77
2022-12-18T02:54:51.982Z,7.85
2022-12-18T02:57:35.814Z,8.02
2022-12-18T03:00:19.943Z,8.48
2022-12-18T03:02:58.547Z,6.38
2022-12-18T03:05:45.061Z,7.80
2022-12-18T03:08:18.987Z,5.70
2022-12-18T03:11:02.903Z,7.38
2022-12-18T03:13:40.279Z,7.75
2022-12-18T03:16:11.064Z,6.47
2022-12-18T03:19:07.643Z,6.97
2022-12-18T03:21:43.031Z,7.13
2022-12-18T03:24:11.127Z,6.05
2022-12-18T03:26:42.256Z,7.68
2022-12-18T03:29:16.447Z,6.55
2022-12-18T03:31:46.439Z,7.22
2022-12-18T03:34:22.952Z,6.90
2022-12-18T03:36:50.030Z,7.03
2022-12-18T03:39:16.738Z,8.50
2022-12-18T03:42:05.232Z,8.35
2022-12-18T03:44:54.483Z,6.30
2022-12-18T03:47:35.863Z,8.50
2022-12-18T03:50:26.547Z,7.75
2022-12-18T03:53:16.970Z,6.30
2022-12-18T03:55:46.863Z,8.23
2022-12-18T03:58:19.524Z,6.60
2022-12-18T04:01:00.658Z,6.82
2022-12-18T04:03:29.728Z,6.72
2022-12-18T04:06:00.334Z,5.28
2022-12-18T04:08:29.185Z,4.78
2022-12-18T04:11:05.600Z,5.10
2022-12-18T04:13:37.453Z,5.47
2022-12-18T04:16:08.408Z,5.10
2022-12-18T04:18:35.276Z,6.28
2022-12-18T04:21:03.478Z,4.85
2022-12-18T04:23:30.408Z,4.40
2022-12-18T04:25:59.242Z,4.90
2022-12-18T04:28:44.419Z,5.18
2022-12-18T04:31:12.417Z,5.30
2022-12-18T04:33:40.136Z,5.65
2022-12-18T04:36:07.807Z,4.60
2022-12-18T04:38:35.080Z,5.63
2022-12-18T04:41:09.182Z,5.50
2022-12-18T04:43:36.714Z,5.85
2022-12-18T04:46:07.445Z,5.80
2022-12-18T04:48:34.464Z,8.05
2022-12-18T04:51:02.943Z,4.35
2022-12-18T04:53:29.639Z,5.20
2022-12-18T04:56:06.352Z,7.38
2022-12-18T04:58:33.100Z,5.22
2022-12-18T05:00:59.828Z,5.00
2022-12-18T05:03:26.625Z,4.68
2022-12-18T05:05:53.396Z,4.60
2022-12-18T05:08:20.146Z,5.80
2022-12-18T05:10:46.868Z,6.53
2022-12-18T05:13:13.497Z,6.55
2022-12-18T05:15:40.232Z,4.47
2022-12-18T05:18:07.004Z,5.25
2022-12-18T05:20:33.658Z,3.90
2022-12-18T05:23:00.298Z,4.43
2022-12-18T05:25:27.720Z,8.30
2022-12-18T05:27:55.131Z,3.83
2022-12-18T05:30:21.750Z,5.30
2022-12-18T05:32:48.355Z,4.30
2022-12-18T05:35:14.920Z,4.15
2022-12-18T05:37:43.446Z,3.55
2022-12-18T05:40:11.203Z,3.67
2022-12-18T05:42:38.255Z,4.82
2022-12-18T05:45:05.943Z,4.15
2022-12-18T05:47:32.651Z,4.00
2022-12-18T05:49:59.290Z,4.00
2022-12-18T05:52:25.929Z,7.15
2022-12-18T05:54:52.606Z,4.45
2022-12-18T05:57:19.315Z,6.55
2022-12-18T05:59:45.915Z,4.78
2022-12-18T06:02:12.678Z,3.53
2022-12-18T06:04:39.363Z,5.05
2022-12-18T06:07:06.153Z,5.75
2022-12-18T06:09:33.358Z,3.88
2022-12-18T06:12:00.111Z,3.97
2022-12-18T06:14:26.823Z,3.85
2022-12-18T06:16:53.532Z,4.18
2022-12-18T06:19:20.093Z,2.70
2022-12-18T06:21:47.749Z,6.90
2022-12-18T06:24:14.366Z,5.78
2022-12-18T06:26:41.084Z,5.05
2022-12-18T06:29:07.843Z,3.63
2022-12-18T06:31:34.668Z,4.43
2022-12-18T06:34:03.765Z,4.57
2022-12-18T06:36:30.644Z,4.50
2022-12-18T06:38:57.901Z,4.10
2022-12-18T06:41:24.821Z,7.57
2022-12-18T06:43:52.855Z,4.07
2022-12-18T06:46:22.475Z,2.85
2022-12-18T06:48:50.841Z,4.88
2022-12-18T06:51:19.849Z,3.47
2022-12-18T06:53:46.570Z,6.45
2022-12-18T06:56:13.296Z,5.10
2022-12-18T06:58:40.350Z,4.72
2022-12-18T07:01:10.269Z,6.22
2022-12-18T07:03:38.559Z,4.55
2022-12-18T07:06:05.670Z,6.13
2022-12-18T07:08:33.539Z,7.90
2022-12-18T07:11:00.441Z,5.05
2022-12-18T07:13:27.727Z,4.55
2022-12-18T07:15:54.501Z,6.03
2022-12-18T07:18:21.212Z,4.90
2022-12-18T07:20:47.824Z,7.53
2022-12-18T07:23:15.611Z,4.75
2022-12-18T07:25:42.323Z,6.10
2022-12-18T07:28:14.157Z,4.43
2022-12-18T07:30:44.086Z,5.40
2022-12-18T07:33:10.730Z,5.43
2022-12-18T07:35:40.518Z,4.22
2022-12-18T07:38:07.399Z,3.28
2022-12-18T07:40:34.018Z,4.82
2022-12-18T07:43:00.647Z,5.25
2022-12-18T07:45:27.332Z,5.07
2022-12-18T07:47:56.986Z,4.20
2022-12-18T07:50:24.942Z,3.97
2022-12-18T07:52:51.566Z,5.03
2022-12-18T07:55:18.075Z,3.75
2022-12-18T07:57:54.311Z,5.72
2022-12-18T08:00:24.411Z,3.80
2022-12-18T08:02:51.237Z,2.83
2022-12-18T08:05:18.351Z,3.30
2022-12-18T08:07:45.098Z,3.60
2022-12-18T08:10:11.807Z,4.10
2022-12-18T08:12:38.549Z,5.10
2022-12-18T08:15:05.728Z,4.93
2022-12-18T08:17:32.966Z,5.07
2022-12-18T08:19:59.718Z,2.92
2022-12-18T08:22:26.798Z,4.03
2022-12-18T08:24:53.446Z,4.10
2022-12-18T08:27:29.406Z,2.53
2022-12-18T08:29:57.818Z,3.53
2022-12-18T08:32:25.757Z,4.55
2022-12-18T08:34:52.500Z,2.53
2022-12-18T08:37:19.530Z,5.05
2022-12-18T08:39:46.370Z,3.95
2022-12-18T08:42:31.200Z,3.10
2022-12-18T08:44:57.862Z,3.78
2022-12-18T08:47:24.472Z,5.43
2022-12-18T08:49:51.085Z,2.95
2022-12-18T08:52:17.734Z,4.53
2022-12-18T08:54:44.440Z,4.10
2022-12-18T08:57:11.073Z,4.63
2022-12-18T08:59:37.807Z,3.33
2022-12-18T09:02:04.625Z,3.75
2022-12-18T09:04:31.445Z,3.92
2022-12-18T09:06:58.069Z,4.28
2022-12-18T09:09:24.745Z,3.70
2022-12-18T09:11:51.314Z,4.95
2022-12-18T09:14:18.026Z,3.67
2022-12-18T09:16:44.852Z,4.75
2022-12-18T09:19:11.977Z,5.72
2022-12-18T09:21:42.119Z,4.30
2022-12-18T09:24:14.740Z,4.47
2022-12-18T09:26:41.551Z,3.88
2022-12-18T09:29:10.125Z,4.13
2022-12-18T09:31:37.770Z,4.10
2022-12-18T09:34:07.692Z,3.20
2022-12-18T09:36:34.590Z,5.43
2022-12-18T09:39:06.308Z,4.68
2022-12-18T09:41:56.911Z,4.53
2022-12-18T09:44:31.494Z,4.47
2022-12-18T09:47:13.653Z,6.18
2022-12-18T09:49:46.150Z,4.40
2022-12-18T09:52:16.751Z,5.07
2022-12-18T09:54:49.134Z,6.40
2022-12-18T09:57:24.276Z,5.38
2022-12-18T10:00:17.403Z,4.72
2022-12-18T10:02:44.285Z,4.18
2022-12-18T10:05:17.973Z,6.43
2022-12-18T10:08:03.542Z,6.53
2022-12-18T10:10:47.502Z,5.45
2022-12-18T10:13:44.811Z,5.72
2022-12-18T10:16:20.590Z,5.95
2022-12-18T10:19:09.993Z,5.90
2022-12-18T10:21:43.281Z,8.35
2022-12-18T10:24:34.931Z,5.80
2022-12-18T10:27:16.026Z,6.13
2022-12-18T10:29:44.794Z,6.32
2022-12-18T10:32:29.680Z,5.05
2022-12-18T10:35:00.720Z,5.25
2022-12-18T10:37:30.618Z,6.22
2022-12-18T10:40:18.452Z,8.38
2022-12-18T10:43:05.387Z,6.28
2022-12-18T10:45:34.011Z,5.70
2022-12-18T10:48:01.468Z,5.57
2022-12-18T10:51:01.679Z,6.00
2022-12-18T10:53:24.824Z,5.07
2022-12-18T10:55:55.844Z,6.50
2022-12-18T10:58:32.509Z,6.75
2022-12-18T11:01:17.225Z,6.28
2022-12-18T11:04:01.666Z,4.90
2022-12-18T11:06:29.543Z,6.00
2022-12-18T11:09:20.996Z,6.28
2022-12-18T11:11:57.032Z,8.20
2022-12-18T11:14:27.325Z,8.57
2022-12-18T11:17:25.386Z,5.07
2022-12-18T11:19:43.358Z,5.95
2022-12-18T11:22:22.433Z,4.18
2022-12-18T11:28:26.080Z,6.28
2022-12-18T11:31:23.825Z,5.57
2022-12-18T11:34:34.402Z,5.20
2022-12-18T11:36:54.326Z,6.40
2022-12-18T11:39:31.441Z,6.43
2022-12-18T11:42:14.393Z,6.10
2022-12-18T11:44:49.633Z,5.53
2022-12-18T11:47:34.520Z,4.47
2022-12-18T11:50:03.707Z,11.73
2022-12-18T11:52:39.373Z,3.85
2022-12-18T11:55:13.578Z,4.88
2022-12-18T11:57:54.296Z,3.53
2022-12-18T12:00:22.912Z,5.75
2022-12-18T12:03:44.544Z,3.70
2022-12-18T12:06:32.814Z,6.50
2022-12-18T12:09:25.238Z,4.82
2022-12-18T12:12:03.982Z,3.08
2022-12-18T12:14:43.156Z,5.43
2022-12-18T12:17:15.925Z,4.85
2022-12-18T12:20:04.427Z,6.32
2022-12-18T12:22:52.727Z,5.13
2022-12-18T12:25:41.609Z,4.20
2022-12-18T12:28:34.949Z,7.00
2022-12-18T12:31:16.833Z,4.72
2022-12-18T12:34:00.775Z,4.85
2022-12-18T12:36:46.065Z,4.25
2022-12-18T12:39:18.777Z,4.82
2022-12-18T12:42:06.126Z,3.72
2022-12-18T12:44:55.636Z,6.43
2022-12-18T12:47:34.626Z,4.13
2022-12-18T12:50:07.942Z,4.15
2022-12-18T12:52:38.935Z,4.30
2022-12-18T12:55:19.726Z,3.70
2022-12-18T12:58:14.571Z,3.92
2022-12-18T13:00:50.297Z,5.45
2022-12-18T13:03:36.307Z,5.28
2022-12-18T13:06:31.417Z,5.05
2022-12-18T13:09:01.227Z,5.07
2022-12-18T13:11:59.730Z,5.13
2022-12-18T13:14:38.252Z,5.22
2022-12-18T13:17:20.834Z,4.28
2022-12-18T13:20:07.986Z,4.47
2022-12-18T13:22:37.417Z,4.25
2022-12-18T13:25:32.030Z,3.08
2022-12-18T13:28:03.824Z,4.47
2022-12-18T13:30:33.259Z,5.43
2022-12-18T13:33:14.909Z,4.75
2022-12-18T13:35:54.648Z,6.93
2022-12-18T13:38:38.264Z,7.20
2022-12-18T13:41:19.937Z,5.50
2022-12-18T13:44:11.020Z,4.80
2022-12-18T13:46:48.038Z,4.25
2022-12-18T13:49:14.620Z,3.75
2022-12-18T13:51:45.401Z,3.75
2022-12-18T13:54:25.396Z,3.00
2022-12-18T13:56:52.489Z,4.40
2022-12-18T13:59:27.271Z,3.75
2022-12-18T14:01:59.846Z,4.43
2022-12-18T14:04:31.745Z,6.38
2022-12-18T14:07:07.955Z,3.72
2022-12-18T14:09:38.887Z,4.18
2022-12-18T14:12:32.855Z,4.32
2022-12-18T14:15:01.214Z,3.80
2022-12-18T14:17:27.936Z,5.20
2022-12-18T14:19:55.350Z,4.55
2022-12-18T14:22:31.131Z,5.18
2022-12-18T14:25:13.316Z,4.45
2022-12-18T14:27:50.619Z,3.53
2022-12-18T14:30:37.595Z,3.42
2022-12-18T14:33:11.003Z,6.32
2022-12-18T14:35:40.861Z,5.45
2022-12-18T14:38:37.515Z,3.53
2022-12-18T14:41:07.531Z,4.40
2022-12-18T14:43:36.331Z,5.53
2022-12-18T14:46:05.758Z,4.05
2022-12-18T14:48:42.753Z,3.70
2022-12-18T14:51:24.088Z,4.70
2022-12-18T14:54:02.477Z,6.07
2022-12-18T14:56:35.072Z,4.53
2022-12-18T14:59:16.984Z,4.90
2022-12-18T15:02:07.685Z,4.25
2022-12-18T15:04:37.419Z,4.95
2022-12-18T15:07:15.746Z,4.28
2022-12-18T15:10:01.275Z,10.15
2022-12-18T15:12:43.106Z,6.65
2022-12-18T15:15:34.955Z,5.55
2022-12-18T15:18:13.515Z,12.40
2022-12-18T15:20:46.143Z,5.57
2022-12-18T15:23:20.677Z,6.00
2022-12-18T15:25:49.414Z,6.78
2022-12-18T15:28:30.140Z,4.43
2022-12-18T15:31:17.027Z,4.95
2022-12-18T15:34:04.064Z,10.18
2022-12-18T15:36:31.580Z,6.22
2022-12-18T15:39:04.755Z,6.55
2022-12-18T15:41:37.315Z,6.32
2022-12-18T15:44:22.738Z,6.22
2022-12-18T15:46:49.735Z,7.18
2022-12-18T15:49:16.418Z,7.22
2022-12-18T15:51:43.353Z,7.82
2022-12-18T15:54:15.032Z,12.57
2022-12-18T15:57:00.291Z,15.82
2022-12-18T15:59:27.586Z,21.30
2022-12-18T16:01:54.388Z,11.80
2022-12-18T16:04:23.137Z,8.60
2022-12-18T16:07:13.743Z,3.85
2022-12-18T16:09:37.659Z,7.00
2022-12-18T16:12:04.896Z,5.32
2022-12-18T16:14:32.602Z,8.32
2022-12-18T16:17:02.276Z,8.05
2022-12-18T16:19:30.170Z,7.55
2022-12-18T16:21:58.612Z,5.03
2022-12-18T16:24:30.823Z,5.72
2022-12-18T16:27:00.330Z,5.47
2022-12-18T16:29:29.312Z,7.50
2022-12-18T16:32:00.973Z,6.55
2022-12-18T16:34:35.816Z,5.40
2022-12-18T16:37:06.521Z,6.95
2022-12-18T16:39:35.265Z,7.10
2022-12-18T16:42:05.621Z,5.32
2022-12-18T16:44:34.521Z,5.72
2022-12-18T16:47:03.025Z,5.35
2022-12-18T16:49:30.922Z,4.78
2022-12-18T16:51:58.155Z,7.78
2022-12-18T16:54:25.310Z,5.78
2022-12-18T16:56:52.301Z,7.90
2022-12-18T16:59:19.812Z,7.30
2022-12-18T17:01:47.322Z,14.80
2022-12-18T17:04:15.179Z,10.20
2022-12-18T17:06:44.595Z,6.95
2022-12-18T17:09:14.820Z,10.98
2022-12-18T17:11:41.992Z,8.77
2022-12-18T17:14:15.303Z,6.07
2022-12-18T17:16:42.646Z,6.47
2022-12-18T17:19:16.656Z,6.63
2022-12-18T17:21:45.904Z,10.43
2022-12-18T17:24:13.519Z,8.55
2022-12-18T17:26:40.472Z,5.47
2022-12-18T17:29:08.282Z,5.80
2022-12-18T17:31:36.148Z,8.35
2022-12-18T17:34:04.162Z,16.50
2022-12-18T17:36:32.503Z,13.15
2022-12-18T17:39:02.224Z,9.27
2022-12-18T17:41:30.066Z,8.55
2022-12-18T17:43:59.802Z,6.97
2022-12-18T17:46:28.191Z,7.68
2022-12-18T17:48:58.968Z,9.80
2022-12-18T17:51:26.409Z,11.15
2022-12-18T17:53:53.212Z,15.20
2022-12-18T17:56:21.755Z,15.05
2022-12-18T17:58:50.424Z,13.73
2022-12-18T18:01:21.091Z,16.45
2022-12-18T18:03:50.355Z,17.77
2022-12-18T18:06:20.522Z,12.00
2022-12-18T18:08:47.339Z,11.35
2022-12-18T18:11:36.021Z,12.57
2022-12-18T18:14:05.545Z,9.90
2022-12-18T18:16:41.437Z,9.40
2022-12-18T18:19:14.437Z,8.07
2022-12-18T18:21:44.741Z,9.80
2022-12-18T18:24:14.835Z,9.63
2022-12-18T18:26:41.960Z,13.77
2022-12-18T18:29:15.472Z,7.50
2022-12-18T18:31:42.519Z,6.90
2022-12-18T18:34:15.571Z,7.05
2022-12-18T18:36:42.475Z,10.05
2022-12-18T18:39:09.087Z,9.32
2022-12-18T18:41:37.546Z,8.35
2022-12-18T18:44:04.963Z,11.95
2022-12-18T18:46:31.705Z,11.13
2022-12-18T18:48:59.003Z,11.30
2022-12-18T18:51:30.023Z,9.13
2022-12-18T18:53:59.991Z,10.82
2022-12-18T18:59:18.390Z,10.13
2022-12-18T19:01:45.370Z,11.60
2022-12-18T19:04:12.420Z,8.02
2022-12-18T19:06:39.276Z,12.15
2022-12-18T19:09:06.644Z,13.23
2022-12-18T19:11:52.500Z,15.85
2022-12-18T19:14:20.261Z,20.40
2022-12-18T19:16:47.036Z,17.80
2022-12-18T19:19:13.880Z,19.50
2022-12-18T19:21:40.995Z,16.75
2022-12-18T19:24:10.113Z,15.45
2022-12-18T19:26:37.629Z,13.63
2022-12-18T19:29:09.168Z,9.75
2022-12-18T19:31:37.392Z,9.90
2022-12-18T19:34:07.925Z,7.55
2022-12-18T19:36:38.148Z,7.72
2022-12-18T19:39:23.949Z,8.05
2022-12-18T19:41:52.659Z,7.35
2022-12-18T19:44:19.489Z,12.73
2022-12-18T19:46:49.516Z,9.45
2022-12-18T19:49:17.587Z,9.05
2022-12-18T19:51:45.668Z,12.43
2022-12-18T19:54:16.953Z,13.02
2022-12-18T19:56:45.589Z,8.80
2022-12-18T19:59:12.895Z,7.70
2022-12-18T20:01:39.925Z,10.80
2022-12-18T20:04:07.058Z,11.07
2022-12-18T20:06:36.694Z,12.07
2022-12-18T20:09:07.333Z,11.48
2022-12-18T20:11:39.650Z,18.02
2022-12-18T20:14:09.082Z,20.45
2022-12-18T20:16:35.932Z,14.23
2022-12-18T20:19:02.907Z,18.75
2022-12-18T20:21:30.222Z,19.05
2022-12-18T20:23:57.019Z,18.50
2022-12-18T20:26:24.820Z,16.35
2022-12-18T20:28:51.981Z,16.17
2022-12-18T20:31:18.622Z,18.88
2022-12-18T20:33:47.695Z,15.35
2022-12-18T20:36:21.150Z,14.52
2022-12-18T20:38:50.887Z,17.17
2022-12-18T20:41:21.075Z,15.15
2022-12-18T20:43:48.438Z,16.17
2022-12-18T20:46:16.998Z,16.55
2022-12-18T20:48:44.882Z,15.80
2022-12-18T20:51:14.387Z,14.90
2022-12-18T20:53:42.067Z,16.10
2022-12-18T20:56:12.859Z,12.63
2022-12-18T20:58:39.573Z,16.08
2022-12-18T21:01:10.038Z,13.90
2022-12-18T21:03:38.269Z,15.20
2022-12-18T21:06:05.216Z,9.73
2022-12-18T21:08:32.371Z,10.18
2022-12-18T21:11:38.777Z,10.57
2022-12-18T21:14:10.634Z,15.88
2022-12-18T21:16:37.918Z,9.50
2022-12-18T21:19:04.719Z,9.57
2022-12-18T21:21:34.762Z,12.45
2022-12-18T21:24:06.074Z,11.63
2022-12-18T21:26:32.868Z,11.32
2022-12-18T21:29:01.784Z,13.52
2022-12-18T21:31:30.894Z,12.90
2022-12-18T21:34:00.903Z,16.02
2022-12-18T21:36:30.506Z,12.82
2022-12-18T21:38:58.547Z,15.00
2022-12-18T21:41:45.555Z,13.18
2022-12-18T21:44:18.115Z,14.55
2022-12-18T21:46:52.800Z,14.75
2022-12-18T21:49:23.142Z,13.13
2022-12-18T21:51:56.015Z,14.68
2022-12-18T21:54:24.255Z,13.50
2022-12-18T21:56:56.507Z,16.70
2022-12-18T21:59:37.382Z,22.58
2022-12-18T22:02:15.940Z,19.65
2022-12-18T22:04:44.158Z,16.67
2022-12-18T22:07:11.560Z,13.63
2022-12-18T22:09:38.752Z,13.13
2022-12-18T22:12:05.931Z,12.20
2022-12-18T22:14:32.742Z,11.82
2022-12-18T22:16:59.568Z,15.25
2022-12-18T22:19:27.027Z,13.20
2022-12-18T22:21:54.118Z,12.02
2022-12-18T22:24:23.570Z,12.57
2022-12-18T22:26:52.958Z,10.68
2022-12-18T22:29:43.174Z,9.00
2022-12-18T22:32:15.692Z,8.80
2022-12-18T22:34:43.497Z,11.18
2022-12-18T22:37:12.352Z,14.82
2022-12-18T22:39:39.218Z,13.20
2022-12-18T22:42:06.308Z,15.25
2022-12-18T22:44:32.915Z,11.55
2022-12-18T22:47:06.315Z,11.95
2022-12-18T22:49:34.812Z,15.98
2022-12-18T22:52:02.440Z,15.52
2022-12-18T22:54:29.186Z,15.80
2022-12-18T22:56:55.811Z,14.77
2022-12-18T22:59:23.243Z,13.60
2022-12-18T23:01:54.221Z,13.25
2022-12-18T23:04:34.266Z,15.50
2022-12-18T23:07:06.620Z,15.13
2022-12-18T23:09:33.617Z,13.07
2022-12-18T23:12:01.150Z,16.50
2022-12-18T23:14:29.028Z,18.38
2022-12-18T23:16:56.422Z,15.32
2022-12-18T23:19:23.812Z,16.35
2022-12-18T23:21:51.472Z,13.65
2022-12-18T23:24:18.272Z,15.32
2022-12-18T23:26:44.978Z,16.42
2022-12-18T23:29:11.708Z,16.70
2022-12-18T23:31:39.827Z,14.50
2022-12-18T23:34:07.349Z,13.23
2022-12-18T23:36:46.055Z,14.50
2022-12-18T23:39:26.194Z,13.00
2022-12-18T23:42:00.021Z,10.68
2022-12-18T23:44:27.402Z,13.35
2022-12-18T23:46:54.502Z,11.98
2022-12-18T23:49:21.423Z,12.05
2022-12-18T23:51:48.518Z,12.82
2022-12-18T23:54:15.362Z,10.88
2022-12-18T23:56:42.316Z,10.60
2022-12-18T23:59:09.166Z,10.85
